Time;durP1;ratioP1;P1;durP2;ratioP2;P2;SDS_P1;SDS_P2;PMS_P1;PMS_P2;Temp;Humidity;BMP_temperature;BMP_pressure;BME280_temperature;BME280_humidity;BME280_pressure;Samples;Min_cycle;Max_cycle;Signal;HPM_P1;HPM_P2
2022/10/30 00:01:43;;;;;;;10.50;3.95;;;14.50;76.70;;;13.31;100.00;96504.47;4860303;28;20537;-66
2022/10/30 00:04:09;;;;;;;17.30;4.35;;;14.40;76.80;;;13.27;100.00;96504.03;4846081;28;20590;-68
2022/10/30 00:06:35;;;;;;;11.18;4.22;;;14.40;76.80;;;13.22;100.00;96503.00;4878587;28;20760;-67
2022/10/30 00:09:01;;;;;;;10.48;4.05;;;14.30;76.90;;;13.19;100.00;96501.56;4869435;28;20247;-68
2022/10/30 00:11:28;;;;;;;11.00;4.00;;;14.30;77.10;;;13.16;100.00;96509.84;4870533;28;20288;-68
2022/10/30 00:13:54;;;;;;;13.13;4.78;;;14.20;77.00;;;13.11;100.00;96504.31;4930362;23;20614;-66
2022/10/30 00:16:21;;;;;;;10.95;4.38;;;14.20;77.10;;;13.07;100.00;96503.09;4850382;28;20212;-66
2022/10/30 00:18:47;;;;;;;13.05;4.85;;;14.10;77.20;;;13.01;100.00;96504.69;4896458;28;20303;-66
2022/10/30 00:21:14;;;;;;;11.00;4.07;;;14.10;77.30;;;12.96;100.00;96507.09;4889243;28;20194;-65
2022/10/30 00:23:51;;;;;;;13.20;4.45;;;14.10;77.50;;;12.94;100.00;96513.59;4873445;28;20189;-65
2022/10/30 00:26:18;;;;;;;13.43;3.90;;;14.10;77.60;;;12.91;100.00;96513.97;4873123;28;20375;-66
2022/10/30 00:28:47;;;;;;;8.93;3.95;;;14.00;77.70;;;12.85;100.00;96511.06;4861504;28;20319;-65
2022/10/30 00:31:14;;;;;;;8.95;4.07;;;14.00;77.80;;;12.81;100.00;96515.09;4857912;28;20340;-66
2022/10/30 00:33:40;;;;;;;11.15;4.75;;;13.90;77.90;;;12.77;100.00;96503.31;4905070;23;20076;-70
2022/10/30 00:36:06;;;;;;;10.68;4.80;;;13.90;77.80;;;12.74;100.00;96508.16;4873368;28;20501;-70
2022/10/30 00:38:33;;;;;;;9.57;4.05;;;13.90;78.00;;;12.72;100.00;96500.44;4881585;28;20389;-70
2022/10/30 00:40:59;;;;;;;11.38;4.85;;;13.90;78.60;;;12.70;100.00;96502.47;4877243;28;20477;-71
2022/10/30 00:43:30;;;;;;;16.58;5.10;;;13.90;78.60;;;12.70;100.00;96497.19;4893497;28;20370;-70
2022/10/30 00:45:59;;;;;;;14.20;4.50;;;13.90;78.80;;;12.68;100.00;96498.38;4892612;28;20355;-70
2022/10/30 00:48:25;;;;;;;12.60;4.50;;;13.90;78.90;;;12.69;100.00;96498.19;4855476;28;20359;-70
2022/10/30 00:50:51;;;;;;;10.45;4.30;;;13.90;78.80;;;12.68;100.00;96498.38;4873484;28;20664;-70
2022/10/30 00:53:18;;;;;;;13.80;4.60;;;13.90;78.90;;;12.67;100.00;96494.91;4857211;28;20500;-70
2022/10/30 00:55:51;;;;;;;13.73;4.82;;;13.90;78.80;;;12.68;100.00;96493.91;4872988;28;20778;-69
2022/10/30 00:58:19;;;;;;;11.60;4.32;;;13.90;78.70;;;12.67;100.00;96497.53;4875997;28;20521;-69
2022/10/30 01:00:51;;;;;;;11.25;3.67;;;13.90;78.30;;;12.67;100.00;96496.72;4887959;28;20763;-70
2022/10/30 01:03:18;;;;;;;10.98;4.25;;;13.80;78.10;;;12.62;100.00;96499.13;4917391;23;20158;-73
2022/10/30 01:05:45;;;;;;;10.95;4.15;;;13.70;77.80;;;12.55;100.00;96488.53;4820837;28;20302;-72
2022/10/30 01:08:11;;;;;;;12.35;4.53;;;13.60;78.00;;;12.51;100.00;96492.56;4820235;28;20395;-72
2022/10/30 01:10:37;;;;;;;8.50;4.00;;;13.60;77.90;;;12.46;100.00;96490.50;4831620;28;20685;-72
2022/10/30 01:13:04;;;;;;;7.65;4.32;;;13.60;78.00;;;12.44;100.00;96496.94;4846479;28;20728;-72
2022/10/30 01:15:39;;;;;;;10.63;5.03;;;13.60;78.20;;;12.39;100.00;96488.78;4822180;28;20359;-73
2022/10/30 01:18:33;;;;;;;8.52;4.15;;;13.60;78.20;;;12.34;100.00;96499.09;4833373;28;20473;-72
2022/10/30 01:21:28;;;;;;;9.57;4.45;;;13.40;78.10;;;12.26;100.00;96510.63;4865703;28;20312;-72
2022/10/30 01:24:37;;;;;;;11.43;5.05;;;13.30;78.30;;;12.15;100.00;96504.00;4845510;28;20301;-72
2022/10/30 01:27:18;;;;;;;11.32;4.63;;;13.20;78.90;;;12.07;100.00;96500.69;4840801;28;20503;-72
2022/10/30 01:30:47;;;;;;;7.43;3.65;;;13.10;79.20;;;11.99;100.00;96504.25;4880899;28;20324;-72
2022/10/30 01:33:42;;;;;;;12.40;3.70;;;13.10;79.30;;;11.94;100.00;96506.63;4829886;28;20290;-72
2022/10/30 01:36:38;;;;;;;15.52;4.30;;;13.00;79.60;;;11.89;100.00;96504.56;4868356;28;20965;-71
2022/10/30 01:39:11;;;;;;;11.55;4.10;;;13.10;79.90;;;11.86;100.00;96504.13;4857143;28;20367;-71
2022/10/30 01:41:37;;;;;;;8.40;3.92;;;13.10;79.90;;;11.84;100.00;96506.13;4836054;28;20380;-71
2022/10/30 01:44:11;;;;;;;8.63;4.03;;;13.10;79.70;;;11.80;100.00;96500.44;4845636;28;20566;-72
2022/10/30 01:47:04;;;;;;;8.55;4.10;;;13.10;79.80;;;11.79;100.00;96492.72;4838885;28;20208;-71
2022/10/30 01:49:57;;;;;;;9.60;4.03;;;13.00;80.20;;;11.77;100.00;96497.28;4878646;28;20357;-71
2022/10/30 01:52:41;;;;;;;11.35;4.43;;;13.00;80.40;;;11.75;100.00;96491.41;4879184;28;20423;-72
2022/10/30 01:55:36;;;;;;;9.85;4.38;;;13.00;80.70;;;11.74;100.00;96489.75;4844452;28;20449;-73
2022/10/30 01:58:23;;;;;;;10.32;4.10;;;13.00;80.70;;;11.75;100.00;96491.41;4862361;28;20553;-73
2022/10/30 02:00:54;;;;;;;9.73;4.60;;;13.00;81.20;;;11.75;100.00;96494.84;4858532;28;20354;-72
2022/10/30 02:03:21;;;;;;;5.83;3.67;;;13.10;81.10;;;11.78;100.00;96491.06;4851597;28;20065;-72
2022/10/30 02:05:51;;;;;;;11.05;4.53;;;13.10;81.20;;;11.76;100.00;96488.56;4839778;28;20798;-72
2022/10/30 02:08:18;;;;;;;9.70;4.50;;;13.00;81.20;;;11.73;100.00;96486.31;4842322;28;20307;-72
2022/10/30 02:10:45;;;;;;;9.65;4.78;;;13.00;81.10;;;11.73;100.00;96493.41;4844098;28;20341;-72
2022/10/30 02:13:11;;;;;;;10.90;4.60;;;13.00;80.80;;;11.70;100.00;96484.06;4839562;28;20471;-72
2022/10/30 02:15:37;;;;;;;12.95;4.78;;;13.00;80.90;;;11.69;100.00;96492.16;4840016;28;20475;-72
2022/10/30 02:18:04;;;;;;;9.57;4.55;;;13.00;81.00;;;11.71;100.00;96487.50;4850195;28;20234;-72
2022/10/30 02:20:31;;;;;;;11.40;4.22;;;13.00;81.00;;;11.71;100.00;96488.31;4838901;28;20562;-72
2022/10/30 02:22:57;;;;;;;7.15;3.83;;;12.90;81.00;;;11.72;100.00;96487.31;4834927;28;20539;-72
2022/10/30 02:25:23;;;;;;;9.02;4.32;;;12.90;80.70;;;11.69;100.00;96481.59;4836747;28;20554;-71
2022/10/30 02:27:49;;;;;;;10.98;4.18;;;12.90;80.80;;;11.63;100.00;96473.44;4853922;28;20641;-72
2022/10/30 02:30:15;;;;;;;10.52;5.25;;;12.90;80.90;;;11.62;100.00;96471.81;4861495;28;20330;-72
2022/10/30 02:32:41;;;;;;;10.75;5.90;;;12.90;81.50;;;11.65;100.00;96478.53;4865006;28;20468;-71
2022/10/30 02:35:08;;;;;;;14.07;5.38;;;13.00;81.70;;;11.68;100.00;96474.72;4817512;28;20788;-71
2022/10/30 02:37:38;;;;;;;12.80;5.57;;;13.00;81.60;;;11.68;100.00;96477.34;4818277;28;20213;-72
2022/10/30 02:40:07;;;;;;;14.00;4.77;;;13.00;81.40;;;11.68;100.00;96477.34;4847135;28;20434;-72
2022/10/30 02:42:33;;;;;;;9.00;4.60;;;13.00;81.10;;;11.66;100.00;96477.53;4844231;28;20334;-72
2022/10/30 02:44:59;;;;;;;8.43;4.05;;;12.90;80.50;;;11.64;100.00;96480.34;4876733;28;20366;-72
2022/10/30 02:47:27;;;;;;;7.88;4.22;;;13.00;80.20;;;11.63;100.00;96477.91;4815005;28;20405;-73
2022/10/30 02:49:53;;;;;;;9.15;4.43;;;12.90;80.00;;;11.59;100.00;96476.66;4830160;28;20434;-72
2022/10/30 02:52:19;;;;;;;6.47;4.00;;;12.80;80.00;;;11.57;100.00;96476.84;4856182;28;20348;-72
2022/10/30 02:54:45;;;;;;;11.63;4.28;;;12.80;79.50;;;11.53;100.00;96480.81;4833846;28;20474;-73
2022/10/30 02:57:12;;;;;;;8.88;4.35;;;12.80;79.70;;;11.50;100.00;96475.91;4846604;28;20329;-72
2022/10/30 02:59:38;;;;;;;9.20;3.80;;;12.70;79.80;;;11.47;100.00;96478.94;4836212;28;20285;-72
2022/10/30 03:02:04;;;;;;;7.90;4.03;;;12.70;80.00;;;11.45;100.00;96480.13;4851350;28;20862;-72
2022/10/30 03:04:30;;;;;;;12.07;4.45;;;12.70;80.10;;;11.43;100.00;96480.31;4826407;28;20676;-73
2022/10/30 03:06:56;;;;;;;12.32;4.60;;;12.70;80.10;;;11.40;100.00;96471.97;4834078;28;20423;-72
2022/10/30 03:09:22;;;;;;;6.57;4.10;;;12.70;80.30;;;11.38;100.00;96464.25;4822257;28;20205;-71
2022/10/30 03:11:48;;;;;;;14.82;4.45;;;12.70;80.30;;;11.35;100.00;96469.88;4857403;28;20322;-72
2022/10/30 03:14:14;;;;;;;8.68;4.20;;;12.70;80.50;;;11.35;100.00;96470.72;4822652;28;20389;-71
2022/10/30 03:16:40;;;;;;;8.63;4.28;;;12.60;80.60;;;11.33;100.00;96466.63;4847951;28;20336;-73
2022/10/30 03:19:06;;;;;;;11.00;4.57;;;12.60;80.60;;;11.30;100.00;96466.97;4842711;28;20921;-72
2022/10/30 03:21:32;;;;;;;12.05;4.32;;;12.60;80.70;;;11.28;100.00;96458.44;4826858;28;20506;-72
2022/10/30 03:23:58;;;;;;;14.75;5.22;;;12.60;81.20;;;11.27;100.00;96454.16;4840767;28;20487;-73
2022/10/30 03:26:24;;;;;;;10.70;5.22;;;12.60;81.80;;;11.26;100.00;96465.72;4837924;28;20772;-73
2022/10/30 03:28:51;;;;;;;10.88;4.78;;;12.60;82.10;;;11.26;100.00;96460.44;4847745;28;20315;-72
2022/10/30 03:31:17;;;;;;;10.23;4.70;;;12.60;82.50;;;11.29;100.00;96460.06;4844118;28;20668;-72
2022/10/30 03:33:43;;;;;;;11.85;4.20;;;12.70;82.40;;;11.33;100.00;96472.72;4837501;28;20194;-72
2022/10/30 03:36:11;;;;;;;9.88;4.22;;;12.60;82.30;;;11.33;100.00;96474.53;4840955;28;20301;-72
2022/10/30 03:38:37;;;;;;;8.60;4.22;;;12.60;82.00;;;11.33;100.00;96474.53;4828142;28;20301;-71
2022/10/30 03:41:03;;;;;;;8.23;3.47;;;12.60;81.60;;;11.30;100.00;96488.03;4818103;28;20546;-72
2022/10/30 03:43:29;;;;;;;6.55;3.38;;;12.60;80.60;;;11.21;100.00;96481.25;4827279;28;20434;-73
2022/10/30 03:45:56;;;;;;;7.07;2.90;;;12.40;79.90;;;11.18;100.00;96481.63;4837694;28;20791;-72
2022/10/30 03:48:24;;;;;;;10.32;3.83;;;12.50;79.80;;;11.13;100.00;96486.63;4834803;28;20760;-71
2022/10/30 03:50:52;;;;;;;11.45;4.82;;;12.40;80.10;;;11.09;100.00;96490.59;4833646;28;20293;-71
2022/10/30 03:53:18;;;;;;;12.10;5.50;;;12.40;80.70;;;11.04;100.00;96484.06;4840221;28;20358;-71
2022/10/30 03:55:44;;;;;;;8.80;4.82;;;12.40;81.10;;;11.03;100.00;96492.97;4841835;28;20455;-72
2022/10/30 03:58:10;;;;;;;14.15;6.03;;;12.30;81.20;;;11.02;100.00;96493.97;4850374;28;20868;-72
2022/10/30 04:00:36;;;;;;;14.38;6.25;;;12.30;81.20;;;10.98;100.00;96492.69;4823245;28;20326;-72
2022/10/30 04:03:06;;;;;;;16.80;6.30;;;12.20;81.10;;;10.95;100.00;96493.06;4827970;28;20565;-72
2022/10/30 04:05:32;;;;;;;13.98;4.55;;;12.20;81.20;;;10.91;100.00;96491.81;4832231;28;20434;-74
2022/10/30 04:08:01;;;;;;;10.27;4.50;;;12.20;80.80;;;10.85;100.00;96479.34;4840365;28;20440;-72
2022/10/30 04:10:27;;;;;;;10.35;4.95;;;12.10;80.80;;;10.80;100.00;96481.69;4834037;28;20484;-71
2022/10/30 04:13:02;;;;;;;14.68;5.85;;;12.10;81.10;;;10.76;100.00;96477.81;4847096;28;20811;-67
2022/10/30 04:15:28;;;;;;;14.13;6.15;;;12.10;81.20;;;10.72;100.00;96481.81;4866816;28;20289;-67
2022/10/30 04:17:55;;;;;;;13.60;5.47;;;12.00;81.10;;;10.71;100.00;96482.81;4829645;28;20214;-70
2022/10/30 04:20:22;;;;;;;10.60;5.47;;;12.10;81.00;;;10.68;100.00;96478.72;4827885;28;20501;-68
2022/10/30 04:22:48;;;;;;;13.07;5.28;;;12.00;80.80;;;10.67;100.00;96482.34;4879816;28;20475;-70
2022/10/30 04:25:14;;;;;;;11.13;5.80;;;11.90;80.60;;;10.64;100.00;96480.06;4841480;28;20294;-67
2022/10/30 04:27:44;;;;;;;51.88;35.47;;;11.90;80.60;;;10.62;100.00;96483.84;4813904;28;20574;-67
2022/10/30 04:30:11;;;;;;;33.10;19.98;;;12.00;80.60;;;10.62;100.00;96483.84;4826286;28;20362;-66
2022/10/30 04:32:46;;;;;;;18.10;10.10;;;12.00;80.70;;;10.57;100.00;96484.41;4838918;28;20321;-66
2022/10/30 04:35:13;;;;;;;24.65;14.85;;;11.90;80.60;;;10.55;100.00;96478.50;4855753;28;20697;-66
2022/10/30 04:37:39;;;;;;;45.10;30.33;;;11.90;80.60;;;10.52;100.00;96472.78;4862329;28;20073;-66
2022/10/30 04:40:06;;;;;;;66.68;46.42;;;11.80;80.60;;;10.49;100.00;96473.97;4829367;28;20538;-66
2022/10/30 04:42:34;;;;;;;26.70;17.77;;;11.80;80.80;;;10.49;100.00;96473.16;4812533;28;20428;-66
2022/10/30 04:45:01;;;;;;;12.32;7.53;;;11.70;80.90;;;10.46;100.00;96470.88;4836016;28;20238;-67
2022/10/30 04:47:28;;;;;;;12.77;8.10;;;11.80;81.00;;;10.46;100.00;96473.50;4824239;28;20485;-67
2022/10/30 04:49:54;;;;;;;16.08;7.85;;;11.80;81.60;;;10.45;100.00;96467.44;4815626;28;20357;-66
2022/10/30 04:52:21;;;;;;;9.98;6.28;;;11.80;81.90;;;10.48;100.00;96467.06;4852279;28;20265;-72
2022/10/30 04:54:47;;;;;;;8.43;5.60;;;11.80;82.50;;;10.51;100.00;96460.63;4816530;28;20404;-67
2022/10/30 04:57:13;;;;;;;9.35;5.95;;;11.90;83.00;;;10.54;100.00;96465.53;4830095;28;20771;-68
2022/10/30 04:59:39;;;;;;;10.85;6.13;;;11.90;82.20;;;10.54;100.00;96466.34;4863234;28;20348;-68
2022/10/30 05:02:06;;;;;;;8.70;4.75;;;11.90;82.00;;;10.53;100.00;96463.91;4841424;28;20485;-68
2022/10/30 05:04:32;;;;;;;8.13;4.65;;;11.90;81.70;;;10.52;100.00;96464.91;4848780;28;20507;-68
2022/10/30 05:06:58;;;;;;;8.05;4.50;;;11.90;81.60;;;10.50;100.00;96456.38;4832816;28;20374;-68
2022/10/30 05:09:24;;;;;;;8.63;4.35;;;11.90;81.70;;;10.48;100.00;96467.06;4832998;28;20339;-69
2022/10/30 05:11:50;;;;;;;6.32;3.45;;;11.90;81.50;;;10.48;100.00;96463.63;4815952;28;20414;-68
2022/10/30 05:14:16;;;;;;;6.38;4.00;;;11.90;81.60;;;10.50;100.00;96461.63;4801437;28;20342;-68
2022/10/30 05:16:42;;;;;;;5.30;3.70;;;11.90;82.60;;;10.51;100.00;96456.19;4830408;28;20310;-68
2022/10/30 05:19:08;;;;;;;5.13;3.50;;;11.90;83.90;;;10.53;100.00;96454.19;4865001;28;20357;-66
2022/10/30 05:21:34;;;;;;;8.82;3.60;;;11.90;84.60;;;10.55;100.00;96449.56;4840319;28;20362;-66
2022/10/30 05:24:00;;;;;;;3.92;2.90;;;12.00;84.40;;;10.57;100.00;96442.31;4837854;28;20694;-67
2022/10/30 05:26:27;;;;;;;5.72;3.10;;;12.00;83.60;;;10.58;100.00;96448.41;4833763;28;20348;-67
2022/10/30 05:28:53;;;;;;;3.20;2.65;;;12.00;83.00;;;10.59;100.00;96442.13;4851287;28;20354;-67
2022/10/30 05:31:19;;;;;;;5.55;3.33;;;12.00;83.20;;;10.59;100.00;96442.94;4820972;28;20317;-67
2022/10/30 05:33:45;;;;;;;5.38;3.28;;;12.10;83.20;;;10.61;100.00;96440.13;4841117;28;20428;-67
2022/10/30 05:36:11;;;;;;;7.60;3.67;;;12.00;82.70;;;10.61;100.00;96434.88;4834724;28;20315;-66
2022/10/30 05:38:37;;;;;;;5.10;3.65;;;12.00;82.80;;;10.61;100.00;96434.88;4832062;28;20297;-67
2022/10/30 05:41:03;;;;;;;6.05;3.88;;;12.10;83.20;;;10.61;100.00;96430.44;4840183;28;20720;-67
2022/10/30 05:43:29;;;;;;;5.95;3.33;;;12.00;83.00;;;10.61;100.00;96426.97;4828225;28;20394;-66
2022/10/30 05:45:55;;;;;;;6.63;3.67;;;12.00;83.00;;;10.62;100.00;96432.06;4825743;28;20788;-66
2022/10/30 05:48:22;;;;;;;5.07;3.33;;;12.00;82.50;;;10.62;100.00;96439.13;4837736;28;20319;-66
2022/10/30 05:50:48;;;;;;;4.93;3.40;;;12.00;82.30;;;10.60;100.00;96441.13;4853199;28;20388;-66
2022/10/30 05:53:14;;;;;;;5.05;3.38;;;12.00;82.50;;;10.59;100.00;96439.50;4839330;28;20598;-62
2022/10/30 05:55:39;;;;;;;8.30;3.72;;;12.00;82.40;;;10.58;100.00;96441.31;4873109;28;20131;-73
2022/10/30 05:58:05;;;;;;;5.03;3.55;;;12.00;82.50;;;10.55;100.00;96446.94;4947629;28;20050;-70
2022/10/30 06:00:34;;;;;;;5.05;3.30;;;11.90;82.20;;;10.53;100.00;96451.56;4937350;28;20142;-71
2022/10/30 06:03:04;;;;;;;5.85;3.60;;;11.90;81.90;;;10.52;100.00;96447.31;4948889;28;20190;-75
2022/10/30 06:05:33;;;;;;;7.13;3.45;;;11.90;81.90;;;10.52;100.00;96457.00;4927945;28;20042;-73
2022/10/30 06:07:59;;;;;;;6.57;3.92;;;11.90;81.60;;;10.50;100.00;96453.75;4945040;28;20043;-72
2022/10/30 06:10:25;;;;;;;9.00;4.22;;;11.90;81.60;;;10.48;100.00;96463.63;4920876;28;20050;-72
2022/10/30 06:12:59;;;;;;;6.97;4.38;;;11.80;81.60;;;10.46;100.00;96455.91;4955011;28;20039;-69
2022/10/30 06:15:25;;;;;;;13.00;5.47;;;11.90;81.70;;;10.48;100.00;96461.00;4950278;28;20162;-71
2022/10/30 06:17:50;;;;;;;11.98;5.10;;;11.90;81.60;;;10.46;100.00;96461.19;4925995;28;20168;-69
2022/10/30 06:20:17;;;;;;;8.32;5.00;;;11.90;81.80;;;10.50;100.00;96461.63;4954762;28;20052;-72
2022/10/30 06:23:02;;;;;;;14.43;9.90;;;12.00;81.80;;;10.52;100.00;96463.09;4972366;28;20137;-69
2022/10/30 06:25:31;;;;;;;10.63;7.78;;;12.00;81.60;;;10.54;100.00;96471.63;4936392;28;20034;-71
2022/10/30 06:27:57;;;;;;;45.47;31.45;;;12.10;81.50;;;10.55;100.00;96465.34;4946306;28;20462;-67
2022/10/30 06:30:24;;;;;;;19.77;13.63;;;12.10;81.30;;;10.58;100.00;96453.66;4945377;28;20278;-70
2022/10/30 06:32:54;;;;;;;17.15;8.25;;;12.10;81.10;;;10.62;100.00;96454.91;4892071;28;20320;-69
2022/10/30 06:35:20;;;;;;;12.20;6.38;;;12.20;81.20;;;10.66;100.00;96453.59;4862073;28;20806;-68
2022/10/30 06:37:47;;;;;;;8.18;5.18;;;12.20;81.20;;;10.70;100.00;96453.03;4854079;28;20618;-71
2022/10/30 06:40:13;;;;;;;10.80;5.35;;;12.30;81.00;;;10.74;100.00;96449.03;4840334;28;20436;-68
2022/10/30 06:42:47;;;;;;;12.32;5.43;;;12.40;81.00;;;10.78;100.00;96452.13;4842542;28;20319;-75
2022/10/30 06:45:14;;;;;;;9.65;5.10;;;12.40;81.10;;;10.82;100.00;96447.31;4846227;28;20320;-65
2022/10/30 06:47:40;;;;;;;9.02;5.32;;;12.50;80.90;;;10.86;100.00;96452.03;4832029;28;20368;-66
2022/10/30 06:50:08;;;;;;;10.60;5.10;;;12.60;81.00;;;10.94;100.00;96444.06;4834848;28;20382;-72
2022/10/30 06:52:35;;;;;;;8.15;5.10;;;12.60;81.10;;;11.03;100.00;96447.41;4828645;28;20446;-73
2022/10/30 06:55:02;;;;;;;9.50;5.03;;;12.80;80.90;;;11.10;100.00;96455.41;4846182;28;20442;-71
2022/10/30 06:57:28;;;;;;;8.80;5.40;;;12.80;80.60;;;11.17;100.00;96451.03;4849092;28;20385;-74
2022/10/30 06:59:54;;;;;;;12.55;5.43;;;13.00;80.50;;;11.24;100.00;96444.81;4842949;28;20412;-71
2022/10/30 07:02:20;;;;;;;11.00;5.00;;;13.10;80.30;;;11.33;100.00;96450.81;4829261;28;20370;-70
2022/10/30 07:04:46;;;;;;;10.52;5.28;;;13.10;80.00;;;11.43;100.00;96453.97;4831585;28;20349;-68
2022/10/30 07:07:13;;;;;;;10.00;5.18;;;13.30;79.70;;;11.54;100.00;96453.50;4828619;28;20491;-67
2022/10/30 07:09:39;;;;;;;9.75;5.10;;;13.50;78.90;;;11.64;100.00;96453.19;4817123;28;20377;-70
2022/10/30 07:12:06;;;;;;;8.68;5.07;;;13.60;78.40;;;11.78;100.00;96464.69;4844983;28;20382;-69
2022/10/30 07:14:33;;;;;;;56.08;37.42;;;13.80;78.20;;;11.89;100.00;96462.41;4834005;28;20477;-70
2022/10/30 07:16:59;;;;;;;26.23;16.45;;;14.00;77.90;;;12.01;100.00;96454.81;4836277;28;20522;-70
2022/10/30 07:19:25;;;;;;;28.17;19.55;;;14.10;77.30;;;12.14;100.00;96460.19;4827186;28;20432;-71
2022/10/30 07:21:51;;;;;;;14.23;9.55;;;14.30;76.80;;;12.26;100.00;96458.69;4845013;28;20330;-72
2022/10/30 07:24:17;;;;;;;14.48;7.65;;;14.50;76.30;;;12.37;100.00;96464.44;4848593;28;20361;-72
2022/10/30 07:26:43;;;;;;;32.53;23.48;;;14.60;75.40;;;12.48;100.00;96466.56;4830983;28;20787;-69
2022/10/30 07:29:09;;;;;;;15.20;8.63;;;14.90;74.70;;;12.62;100.00;96468.28;4831688;28;20365;-68
2022/10/30 07:31:36;;;;;;;31.45;20.00;;;15.00;73.60;;;12.72;100.00;96467.94;4826195;28;20379;-67
2022/10/30 07:34:02;;;;;;;13.52;6.80;;;15.10;73.60;;;12.82;100.00;96473.69;4826062;28;20495;-69
2022/10/30 07:36:28;;;;;;;12.30;5.72;;;15.10;72.40;;;12.91;100.00;96471.72;4842117;28;20569;-69
2022/10/30 07:38:54;;;;;;;15.32;7.95;;;15.20;71.90;;;13.00;100.00;96471.38;4848453;28;20341;-67
2022/10/30 07:41:20;;;;;;;13.27;8.00;;;15.40;71.60;;;13.11;100.00;96473.44;4828052;28;20206;-67
2022/10/30 07:43:46;;;;;;;10.48;6.30;;;15.60;71.40;;;13.27;100.00;96482.09;4871559;28;20288;-68
2022/10/30 07:46:13;;;;;;;14.23;5.22;;;15.80;71.10;;;13.41;100.00;96481.97;4848890;28;20786;-67
2022/10/30 07:48:39;;;;;;;15.55;5.32;;;16.00;69.90;;;13.57;100.00;96482.63;4832768;28;20213;-67
2022/10/30 07:51:06;;;;;;;10.05;4.70;;;16.30;69.30;;;13.74;100.00;96486.53;4840150;28;20070;-67
2022/10/30 07:53:32;;;;;;;24.67;14.70;;;16.40;68.60;;;13.88;100.00;96490.06;4843428;28;20459;-67
2022/10/30 07:55:58;;;;;;;33.38;23.75;;;16.50;68.60;;;14.01;100.00;96479.47;4846776;28;20496;-67
2022/10/30 07:58:24;;;;;;;14.85;10.85;;;16.70;68.00;;;14.14;100.00;96490.09;4834791;28;20488;-67
2022/10/30 08:00:50;;;;;;;14.40;5.47;;;16.80;68.00;;;14.29;100.00;96487.28;4822952;28;20528;-67
2022/10/30 08:03:16;;;;;;;10.70;4.85;;;17.00;67.00;;;14.42;100.00;96487.25;4813704;28;20705;-67
2022/10/30 08:05:43;;;;;;;10.38;4.57;;;17.10;66.40;;;14.55;100.00;96487.31;4836623;28;20698;-65
2022/10/30 08:08:09;;;;;;;15.48;5.20;;;17.20;65.50;;;14.65;100.00;96489.53;4847207;28;20349;-65
2022/10/30 08:10:36;;;;;;;13.55;5.35;;;17.40;65.80;;;14.75;100.00;96486.47;4863664;28;20201;-66
2022/10/30 08:13:02;;;;;;;15.43;10.43;;;17.50;65.70;;;14.87;100.00;96490.13;4847972;28;20343;-66
2022/10/30 08:15:29;;;;;;;27.67;15.90;;;17.60;64.80;;;14.97;100.00;96469.34;4856692;28;20221;-66
2022/10/30 08:17:55;;;;;;;12.02;5.55;;;17.70;65.00;;;15.13;100.00;96471.50;4811844;28;20406;-66
2022/10/30 08:20:22;;;;;;;14.52;7.55;;;17.90;63.90;;;15.29;100.00;96473.72;4830112;28;20461;-66
2022/10/30 08:22:49;;;;;;;36.85;27.35;;;18.10;63.10;;;15.47;100.00;96480.19;4849322;28;20393;-66
2022/10/30 08:25:17;;;;;;;29.05;17.27;;;18.60;62.80;;;15.66;100.00;96479.31;4832956;28;20314;-68
2022/10/30 08:28:13;;;;;;;18.20;11.48;;;18.80;62.90;;;15.92;99.34;96473.88;4838573;28;20357;-68
2022/10/30 08:30:39;;;;;;;22.77;14.23;;;19.30;62.10;;;16.14;99.60;96478.84;4828409;28;20562;-67
2022/10/30 08:33:12;;;;;;;14.27;7.65;;;19.60;60.20;;;16.42;97.96;96478.44;4841086;28;20533;-67
2022/10/30 08:35:38;;;;;;;12.55;4.35;;;20.20;59.10;;;16.70;96.54;96478.03;4829343;28;20849;-68
2022/10/30 08:38:04;;;;;;;7.93;4.40;;;20.70;56.20;;;16.96;96.71;96471.66;4833205;28;20324;-68
2022/10/30 08:40:30;;;;;;;12.13;3.72;;;21.10;56.50;;;17.21;94.48;96467.13;4834826;28;20768;-68
2022/10/30 08:42:57;;;;;;;11.43;4.20;;;21.50;54.50;;;17.50;92.46;96470.88;4840176;28;20529;-68
2022/10/30 08:45:23;;;;;;;12.70;4.40;;;21.80;53.40;;;17.83;91.93;96466.97;4841121;28;20323;-68
2022/10/30 08:48:00;;;;;;;9.35;4.15;;;22.50;52.60;;;18.18;88.49;96478.56;4841905;28;20330;-67
2022/10/30 08:50:26;;;;;;;6.43;3.28;;;22.70;52.10;;;18.48;89.16;96467.06;4854754;28;20401;-69
2022/10/30 08:52:52;;;;;;;11.55;5.18;;;23.00;50.80;;;18.74;86.75;96474.63;4847611;28;20702;-67
2022/10/30 08:55:18;;;;;;;15.45;6.30;;;23.30;49.50;;;18.97;86.19;96471.16;4842486;28;20342;-70
2022/10/30 08:57:45;;;;;;;71.95;60.53;;;23.30;49.50;;;19.19;85.37;96460.72;4808394;28;20351;-70
2022/10/30 09:00:11;;;;;;;10.10;6.63;;;23.50;49.80;;;19.37;80.88;96455.25;4820624;28;20595;-70
2022/10/30 09:02:38;;;;;;;9.95;4.18;;;23.30;47.50;;;19.44;79.35;96455.91;4835572;28;20864;-70
2022/10/30 09:05:06;;;;;;;10.80;3.78;;;23.20;48.20;;;19.55;78.02;96452.44;4863099;28;20221;-70
2022/10/30 09:07:32;;;;;;;8.63;2.95;;;23.60;48.00;;;19.70;78.25;96457.28;4852772;28;20046;-71
2022/10/30 09:09:58;;;;;;;8.68;3.17;;;24.20;46.20;;;19.84;77.67;96450.59;4847597;28;20566;-69
2022/10/30 09:12:25;;;;;;;10.98;3.58;;;24.60;45.40;;;20.06;76.91;96448.06;4839230;28;20548;-72
2022/10/30 09:14:51;;;;;;;11.88;3.45;;;25.60;44.10;;;20.28;76.38;96450.84;4850080;28;20760;-71
2022/10/30 09:17:17;;;;;;;10.82;3.88;;;26.00;43.00;;;20.47;76.39;96448.78;4812424;28;20226;-71
2022/10/30 09:19:43;;;;;;;9.25;3.40;;;26.00;43.30;;;20.60;74.49;96440.44;4832598;28;20499;-68
2022/10/30 09:22:09;;;;;;;7.63;3.20;;;25.90;42.60;;;20.79;73.58;96451.66;4817052;28;20343;-69
2022/10/30 09:24:36;;;;;;;9.88;3.60;;;26.50;41.10;;;20.98;72.50;96450.34;4828649;28;20729;-71
2022/10/30 09:27:02;;;;;;;9.27;4.28;;;27.10;39.20;;;21.16;71.67;96446.59;4816761;28;20426;-76
2022/10/30 09:29:30;;;;;;;8.65;3.80;;;27.50;38.80;;;21.27;72.12;96443.00;4831109;28;20214;-71
2022/10/30 09:31:57;;;;;;;8.30;3.60;;;27.30;40.10;;;21.45;71.01;96449.13;4830829;28;20449;-73
2022/10/30 09:34:23;;;;;;;9.32;3.75;;;28.10;38.50;;;21.69;70.17;96453.97;4831680;28;20934;-71
2022/10/30 09:36:49;;;;;;;12.50;3.78;;;28.80;36.80;;;21.91;69.48;96453.94;4826007;28;20311;-72
2022/10/30 09:39:16;;;;;;;9.40;3.10;;;29.20;36.80;;;22.24;69.51;96457.53;4842529;28;20460;-73
2022/10/30 09:41:58;;;;;;;12.20;3.20;;;30.90;34.60;;;22.75;63.35;96442.66;4815469;28;20591;-71
2022/10/30 09:44:48;;;;;;;12.00;3.75;;;32.40;31.70;;;23.35;60.36;96440.66;4855160;28;20503;-72
2022/10/30 09:47:52;;;;;;;14.18;3.72;;;33.50;29.20;;;24.01;58.87;96438.22;4878424;28;20187;-70
2022/10/30 09:50:37;;;;;;;13.48;4.90;;;34.20;28.20;;;24.61;57.70;96442.84;4853558;28;20206;-72
2022/10/30 09:53:29;;;;;;;9.07;3.78;;;34.10;28.20;;;25.12;56.93;96442.00;4869998;28;20732;-73
2022/10/30 09:56:22;;;;;;;14.63;3.53;;;34.40;28.70;;;25.69;54.01;96440.78;4879469;28;20377;-73
2022/10/30 09:59:19;;;;;;;14.23;3.70;;;35.60;27.00;;;26.21;51.72;96446.41;4853863;28;20565;-73
2022/10/30 10:01:52;;;;;;;9.82;3.80;;;36.00;25.90;;;26.66;50.27;96439.09;4850424;28;20317;-68
2022/10/30 10:04:42;;;;;;;11.68;3.85;;;36.80;25.20;;;27.15;47.86;96432.72;4863278;28;20410;-67
2022/10/30 10:07:21;;;;;;;8.55;2.90;;;37.30;24.50;;;27.63;46.99;96430.06;4848185;28;20395;-68
2022/10/30 10:09:49;;;;;;;6.32;2.90;;;37.90;23.90;;;28.08;51.92;96441.34;4881839;28;20027;-66
2022/10/30 10:12:28;;;;;;;9.50;3.45;;;38.60;22.50;;;28.47;43.74;96425.63;4906008;28;20228;-66
2022/10/30 10:14:54;;;;;;;10.70;3.03;;;39.00;22.20;;;28.82;49.17;96435.06;4889089;28;20035;-66
2022/10/30 10:17:35;;;;;;;7.43;2.85;;;39.20;22.00;;;29.11;43.84;96421.28;4912576;28;20340;-67
2022/10/30 10:20:02;;;;;;;12.55;3.38;;;39.50;22.00;;;29.35;47.15;96423.00;4875701;28;20051;-66